Time;durP1;ratioP1;P1;durP2;ratioP2;P2;SDS_P1;SDS_P2;PMS_P1;PMS_P2;Temp;Humidity;BMP_temperature;BMP_pressure;BME280_temperature;BME280_humidity;BME280_pressure;Samples;Min_cycle;Max_cycle;Signal;HPM_P1;HPM_P2
2024/03/30 00:00:59;;;;;;;9.98;2.60;;;;;;;16.55;53.38;99372.88;4908392;29;20027;-92
2024/03/30 00:03:24;;;;;;;14.32;2.88;;;;;;;16.53;53.63;99361.53;4924697;29;20418;-91
2024/03/30 00:06:02;;;;;;;20.38;2.95;;;;;;;16.60;53.38;99374.72;4908254;29;20118;-93
2024/03/30 00:08:28;;;;;;;9.95;2.72;;;;;;;16.67;52.92;99379.72;4908377;29;20493;-91
2024/03/30 00:11:01;;;;;;;10.95;2.90;;;;;;;16.74;52.86;99378.16;4909086;29;20070;-91
2024/03/30 00:13:27;;;;;;;12.02;2.60;;;;;;;16.80;52.56;99383.47;4908614;29;20129;-90
2024/03/30 00:15:53;;;;;;;11.27;2.42;;;;;;;16.72;52.64;99372.22;4924101;29;20027;-91
2024/03/30 00:18:18;;;;;;;13.15;2.50;;;;;;;16.77;52.25;99369.38;4908461;29;20034;-92
2024/03/30 00:20:44;;;;;;;14.55;2.78;;;;;;;16.69;52.34;99351.09;4924599;29;20027;-92
2024/03/30 00:23:12;;;;;;;17.20;2.70;;;;;;;16.77;52.24;99365.88;4923706;29;20074;-90
2024/03/30 00:25:37;;;;;;;13.95;2.72;;;;;;;16.75;52.19;99359.94;4925435;29;20043;-92
2024/03/30 00:28:03;;;;;;;10.75;2.67;;;;;;;16.80;52.37;99367.16;4924050;29;20401;-92
2024/03/30 00:30:36;;;;;;;13.95;3.30;;;;;;;16.89;52.33;99382.47;4922780;29;20027;-91
2024/03/30 00:33:02;;;;;;;13.77;3.08;;;;;;;16.84;51.94;99374.41;4926193;29;20023;-91
2024/03/30 00:35:28;;;;;;;11.48;2.65;;;;;;;16.77;51.65;99358.50;4907743;29;20031;-91
2024/03/30 00:37:54;;;;;;;11.25;2.95;;;;;;;16.93;51.91;99383.44;4924516;29;20030;-92
2024/03/30 00:40:21;;;;;;;15.45;2.60;;;;;;;16.89;51.57;99362.59;4939824;29;20033;-92
2024/03/30 00:42:47;;;;;;;14.07;2.78;;;;;;;16.87;51.82;99362.09;4923467;29;20036;-93
2024/03/30 00:45:15;;;;;;;16.75;2.60;;;;;;;16.91;51.47;99363.91;4908662;29;20034;-91
2024/03/30 00:47:40;;;;;;;15.57;3.25;;;;;;;17.02;51.49;99385.41;4908391;29;20466;-92
2024/03/30 00:50:06;;;;;;;16.15;2.60;;;;;;;16.95;51.78;99366.78;4907365;29;20134;-93
2024/03/30 00:52:32;;;;;;;14.80;3.53;;;;;;;16.94;51.52;99359.75;4923047;29;20474;-92
2024/03/30 00:54:58;;;;;;;13.75;3.00;;;;;;;16.98;51.54;99362.66;4907498;29;20055;-93
2024/03/30 00:57:23;;;;;;;13.02;3.03;;;;;;;16.83;51.62;99351.06;4924390;29;20422;-92
2024/03/30 00:59:50;;;;;;;18.73;3.30;;;;;;;16.75;52.03;99351.78;4923274;29;20027;-92
2024/03/30 01:02:16;;;;;;;15.65;3.10;;;;;;;16.62;52.10;99334.44;4907900;29;20039;-93
2024/03/30 01:04:41;;;;;;;11.27;3.53;;;;;;;16.49;52.32;99336.06;4907547;29;20038;-91
2024/03/30 01:07:07;;;;;;;13.95;4.15;;;;;;;16.42;52.62;99332.19;4923383;29;20035;-92
2024/03/30 01:09:33;;;;;;;17.73;4.47;;;;;;;16.38;52.56;99348.31;4907792;29;20027;-92
2024/03/30 01:11:59;;;;;;;14.25;3.70;;;;;;;16.22;53.35;99341.63;4907053;29;20037;-91
2024/03/30 01:14:27;;;;;;;14.60;3.88;;;;;;;16.14;53.36;99335.81;4907352;29;20031;-91
2024/03/30 01:16:52;;;;;;;12.75;3.85;;;;;;;16.13;53.51;99347.78;4908554;29;20509;-91
2024/03/30 01:19:18;;;;;;;103.15;45.10;;;;;;;16.03;54.16;99339.06;4908034;29;20023;-90
2024/03/30 01:21:44;;;;;;;27.48;9.98;;;;;;;16.03;53.87;99358.84;4907504;29;20074;-92
2024/03/30 01:24:10;;;;;;;17.58;4.78;;;;;;;16.06;54.13;99360.16;4907390;29;20030;-92
2024/03/30 01:26:37;;;;;;;13.25;2.63;;;;;;;16.03;53.75;99361.56;4907013;29;20027;-92
2024/03/30 01:29:03;;;;;;;15.68;3.58;;;;;;;15.94;54.09;99353.34;4923029;29;20398;-93
2024/03/30 01:31:28;;;;;;;12.75;2.80;;;;;;;15.95;54.01;99346.00;4907793;29;20027;-91
2024/03/30 01:33:54;;;;;;;10.77;2.95;;;;;;;16.01;53.70;99357.56;4907711;29;20529;-92
2024/03/30 01:36:22;;;;;;;24.92;4.47;;;;;;;16.02;54.24;99365.41;4908977;29;20034;-92
2024/03/30 01:38:48;;;;;;;14.32;4.40;;;;;;;15.98;54.51;99361.69;4924591;29;20039;-92
2024/03/30 01:41:13;;;;;;;19.33;4.32;;;;;;;15.90;54.83;99348.84;4922684;29;20049;-92
2024/03/30 01:43:39;;;;;;;19.92;4.70;;;;;;;15.87;54.83;99354.84;4923596;29;20465;-92
2024/03/30 01:46:05;;;;;;;12.18;2.50;;;;;;;15.87;54.07;99368.44;4906955;29;20488;-93
2024/03/30 01:48:30;;;;;;;20.80;4.57;;;;;;;15.72;55.21;99351.34;4907850;29;20023;-92
2024/03/30 01:50:56;;;;;;;14.07;6.57;;;;;;;15.75;55.07;99356.19;4907909;29;20086;-93
2024/03/30 01:53:23;;;;;;;21.40;5.55;;;;;;;15.65;55.34;99348.22;4918678;28;20665;-94
2024/03/30 01:55:51;;;;;;;15.23;4.90;;;;;;;15.69;55.56;99364.72;4924185;29;20023;-92
2024/03/30 01:58:20;;;;;;;16.25;4.68;;;;;;;15.50;55.98;99346.63;4939998;28;20037;-93
2024/03/30 02:00:46;;;;;;;25.00;5.35;;;;;;;15.47;56.15;99354.56;4926464;28;20027;-93
2024/03/30 02:03:11;;;;;;;17.42;4.85;;;;;;;15.42;56.31;99349.22;4943329;28;20023;-94
2024/03/30 02:05:37;;;;;;;14.30;4.72;;;;;;;15.40;56.60;99360.41;4926647;28;20030;-92
2024/03/30 02:08:03;;;;;;;22.30;4.55;;;;;;;15.38;56.50;99362.59;4928000;28;20026;-92
2024/03/30 02:10:29;;;;;;;14.68;4.18;;;;;;;15.34;56.85;99356.97;4944229;28;20031;-92
2024/03/30 02:12:55;;;;;;;14.90;3.83;;;;;;;15.33;56.58;99354.53;4927238;28;20027;-92
2024/03/30 02:15:20;;;;;;;15.38;4.43;;;;;;;15.31;56.55;99354.03;4928177;28;20019;-92
2024/03/30 02:17:46;;;;;;;10.90;2.90;;;;;;;15.39;56.64;99375.06;4926326;28;20054;-92
2024/03/30 02:20:12;;;;;;;12.90;3.40;;;;;;;15.28;56.67;99360.88;4926369;28;20026;-92
2024/03/30 02:22:37;;;;;;;16.20;3.70;;;;;;;15.20;57.44;99353.44;4927023;28;20054;-91
2024/03/30 02:25:06;;;;;;;18.23;4.05;;;;;;;15.09;57.65;99363.66;4941949;28;20083;-92
2024/03/30 02:27:32;;;;;;;11.77;3.40;;;;;;;15.01;57.84;99353.50;4926705;28;20481;-92
2024/03/30 02:29:59;;;;;;;9.85;3.17;;;;;;;14.95;58.51;99365.53;4942914;28;20023;-93
2024/03/30 02:32:26;;;;;;;10.57;3.70;;;;;;;14.98;58.14;99372.28;4927300;28;20037;-93
2024/03/30 02:34:51;;;;;;;13.68;4.38;;;;;;;14.78;58.59;99344.41;4927128;28;20081;-93
2024/03/30 02:37:17;;;;;;;17.42;4.72;;;;;;;14.83;58.75;99363.28;4926029;28;20390;-94
2024/03/30 02:39:42;;;;;;;19.15;4.38;;;;;;;14.80;58.89;99360.38;4926996;28;20031;-93
2024/03/30 02:42:08;;;;;;;19.90;3.97;;;;;;;14.72;59.27;99359.94;4927377;28;20031;-93
2024/03/30 02:44:34;;;;;;;13.38;3.90;;;;;;;14.63;59.41;99359.03;4926608;28;20061;-94
2024/03/30 02:46:59;;;;;;;12.00;3.83;;;;;;;14.64;59.12;99347.06;4927499;28;20058;-93
2024/03/30 02:49:25;;;;;;;12.80;3.72;;;;;;;14.63;59.29;99353.59;4927616;28;20096;-93
2024/03/30 02:51:50;;;;;;;8.43;3.63;;;;;;;14.55;59.59;99354.25;4927171;28;20062;-93
2024/03/30 02:54:16;;;;;;;14.38;3.40;;;;;;;14.50;59.63;99348.88;4929330;28;20113;-93
2024/03/30 02:56:42;;;;;;;11.10;4.22;;;;;;;14.43;59.95;99351.19;4946116;28;20026;-92
2024/03/30 02:59:07;;;;;;;12.07;3.42;;;;;;;14.45;59.92;99355.19;4930250;28;20061;-91
2024/03/30 03:01:36;;;;;;;19.83;5.03;;;;;;;14.40;59.84;99352.59;4929430;28;20022;-91
2024/03/30 03:04:03;;;;;;;11.10;3.25;;;;;;;14.37;60.27;99355.06;4930684;28;20050;-93
2024/03/30 03:06:29;;;;;;;10.77;3.65;;;;;;;14.34;60.34;99357.25;4930182;28;20062;-93
2024/03/30 03:08:54;;;;;;;11.50;3.47;;;;;;;14.43;60.23;99370.16;4930606;28;20030;-93
2024/03/30 03:11:20;;;;;;;11.90;3.70;;;;;;;14.32;60.73;99362.16;4929201;28;20031;-93
2024/03/30 03:13:46;;;;;;;11.35;3.53;;;;;;;14.28;60.30;99353.03;4929525;28;20023;-93
2024/03/30 03:16:11;;;;;;;10.82;3.30;;;;;;;14.25;60.03;99342.75;4929232;28;20053;-93
2024/03/30 03:18:37;;;;;;;10.98;3.20;;;;;;;14.26;60.15;99349.78;4929813;28;20026;-92
2024/03/30 03:21:02;;;;;;;10.93;4.10;;;;;;;14.33;60.43;99361.06;4929475;28;20034;-93
2024/03/30 03:23:30;;;;;;;11.40;3.88;;;;;;;14.24;60.72;99354.69;4944910;28;20414;-92
2024/03/30 03:25:56;;;;;;;13.32;3.35;;;;;;;14.29;60.70;99380.91;4930604;28;20037;-92
2024/03/30 03:28:22;;;;;;;12.43;3.25;;;;;;;14.21;60.94;99363.41;4929510;28;20484;-93
2024/03/30 03:30:47;;;;;;;13.80;3.83;;;;;;;14.19;60.72;99368.28;4929540;28;20533;-93
2024/03/30 03:33:13;;;;;;;10.10;3.10;;;;;;;14.11;60.74;99372.50;4929823;28;20121;-93
2024/03/30 03:35:39;;;;;;;16.33;3.40;;;;;;;14.19;60.91;99394.59;4929368;28;20097;-93
2024/03/30 03:38:05;;;;;;;9.50;3.83;;;;;;;14.04;60.97;99371.22;4945836;28;20058;-92
2024/03/30 03:40:31;;;;;;;16.10;4.78;;;;;;;14.11;61.27;99390.63;4930415;28;20031;-92
2024/03/30 03:42:57;;;;;;;14.20;3.63;;;;;;;14.00;61.29;99386.44;4944680;28;20057;-92
2024/03/30 03:45:22;;;;;;;14.05;3.42;;;;;;;13.97;61.47;99381.63;4930348;28;20497;-92
2024/03/30 03:47:49;;;;;;;10.88;3.50;;;;;;;13.88;61.62;99370.63;4928711;28;20023;-92
2024/03/30 03:50:14;;;;;;;12.13;3.35;;;;;;;13.87;61.58;99387.97;4929536;28;20408;-92
2024/03/30 03:52:40;;;;;;;9.38;3.25;;;;;;;13.68;61.72;99361.66;4929472;28;20030;-92
2024/03/30 03:55:06;;;;;;;13.63;3.95;;;;;;;13.73;61.94;99371.63;4941082;29;20074;-91
2024/03/30 03:57:32;;;;;;;15.07;4.50;;;;;;;13.75;62.02;99385.66;4920304;28;20408;-93
2024/03/30 03:59:57;;;;;;;9.23;2.85;;;;;;;13.55;62.40;99365.09;4941113;29;20027;-94
2024/03/30 04:02:23;;;;;;;16.85;3.42;;;;;;;13.62;62.65;99380.97;4945136;28;20031;-93
2024/03/30 04:04:50;;;;;;;16.95;3.72;;;;;;;13.62;62.49;99389.06;4926056;29;20027;-94
2024/03/30 04:07:16;;;;;;;16.73;3.45;;;;;;;13.46;62.57;99378.41;4943110;28;20412;-92
2024/03/30 04:09:41;;;;;;;11.20;3.33;;;;;;;13.58;62.20;99379.91;4946179;28;20102;-92
2024/03/30 04:12:07;;;;;;;12.88;3.53;;;;;;;13.53;62.75;99389.72;4929147;28;20026;-92
2024/03/30 04:14:33;;;;;;;14.93;3.30;;;;;;;13.44;62.95;99396.03;4928525;28;20023;-92
2024/03/30 04:16:59;;;;;;;13.68;3.40;;;;;;;13.33;62.82;99392.63;4929193;28;20018;-92
2024/03/30 04:19:24;;;;;;;17.77;3.97;;;;;;;13.30;63.14;99394.00;4929002;28;20034;-92
2024/03/30 04:21:53;;;;;;;20.13;3.50;;;;;;;13.36;63.09;99402.84;4929179;28;20046;-92
2024/03/30 04:24:18;;;;;;;8.68;3.15;;;;;;;13.13;63.95;99410.59;4931123;28;20027;-92
2024/03/30 04:26:44;;;;;;;9.38;3.22;;;;;;;13.24;63.91;99429.44;4928623;28;20170;-93
2024/03/30 04:29:10;;;;;;;9.77;3.10;;;;;;;13.04;63.86;99377.19;4928836;28;20023;-93
2024/03/30 04:31:35;;;;;;;8.75;3.22;;;;;;;12.98;64.11;99391.84;4928929;28;20390;-93
2024/03/30 04:34:01;;;;;;;20.75;3.78;;;;;;;13.13;63.83;99420.63;4928772;28;20173;-91
2024/03/30 04:36:26;;;;;;;16.90;3.55;;;;;;;13.14;63.90;99416.84;4929429;28;20450;-92
2024/03/30 04:38:52;;;;;;;11.38;3.45;;;;;;;13.07;63.62;99403.66;4944028;28;20085;-92
2024/03/30 04:41:18;;;;;;;28.80;4.68;;;;;;;13.06;63.72;99412.84;4929702;28;20054;-92
2024/03/30 04:43:43;;;;;;;20.42;3.85;;;;;;;13.17;63.57;99407.34;4928849;28;20090;-92
2024/03/30 04:46:09;;;;;;;24.75;4.65;;;;;;;13.34;63.25;99416.69;4928922;28;20058;-92
2024/03/30 04:48:35;;;;;;;15.13;3.97;;;;;;;13.34;62.99;99408.56;4928897;28;20022;-91
2024/03/30 04:51:01;;;;;;;17.45;4.38;;;;;;;13.26;62.96;99398.34;4945393;28;20023;-91
2024/03/30 04:53:33;;;;;;;14.90;4.75;;;;;;;13.24;63.43;99410.50;4929274;28;20022;-91
2024/03/30 04:56:00;;;;;;;17.80;4.35;;;;;;;13.20;63.71;99406.75;4929074;28;20019;-92
2024/03/30 04:58:27;;;;;;;25.00;6.32;;;;;;;13.39;63.34;99425.84;4929284;28;20477;-94
2024/03/30 05:01:00;;;;;;;14.70;4.63;;;;;;;13.31;63.31;99428.06;4929225;28;20023;-92
2024/03/30 05:03:25;;;;;;;23.92;5.93;;;;;;;13.33;63.33;99420.47;4961087;28;20031;-93
2024/03/30 05:05:51;;;;;;;12.27;5.28;;;;;;;13.32;63.22;99418.03;4928772;28;20077;-94
2024/03/30 05:08:16;;;;;;;21.55;5.53;;;;;;;13.30;63.30;99414.81;4928026;28;20058;-92
2024/03/30 05:10:43;;;;;;;20.52;6.03;;;;;;;13.44;63.08;99418.47;4927318;28;20508;-92
2024/03/30 05:13:08;;;;;;;17.27;5.93;;;;;;;13.48;62.68;99402.47;4944251;28;20041;-93
2024/03/30 05:15:39;;;;;;;14.93;6.00;;;;;;;13.42;62.92;99401.72;4928705;28;20021;-94
2024/03/30 05:18:05;;;;;;;19.65;5.82;;;;;;;13.47;62.63;99404.38;4944345;28;20023;-92
2024/03/30 05:23:27;;;;;;;18.55;6.70;;;;;;;13.65;62.98;99424.47;4949429;28;20093;-92
2024/03/30 05:25:53;;;;;;;23.48;6.65;;;;;;;13.73;62.66;99433.84;4946367;28;20037;-93
2024/03/30 05:28:24;;;;;;;21.17;7.28;;;;;;;13.71;62.73;99412.47;4960245;28;20077;-93
2024/03/30 05:30:50;;;;;;;20.10;6.93;;;;;;;13.70;62.59;99421.72;4960572;28;20051;-93
2024/03/30 05:33:17;;;;;;;21.17;6.70;;;;;;;13.68;62.59;99409.56;4960803;28;20500;-92
2024/03/30 05:35:43;;;;;;;21.92;6.95;;;;;;;13.74;62.73;99406.50;4944261;28;20030;-92
2024/03/30 05:38:08;;;;;;;22.30;6.82;;;;;;;13.90;62.18;99420.69;4976483;28;20076;-93
2024/03/30 05:40:35;;;;;;;20.95;6.20;;;;;;;13.82;62.30;99396.97;4961318;28;20023;-92
2024/03/30 05:43:01;;;;;;;23.77;6.70;;;;;;;13.91;62.12;99400.63;4975981;28;20025;-93
2024/03/30 05:45:28;;;;;;;18.45;6.47;;;;;;;14.12;61.92;99416.59;4976832;28;20102;-93
2024/03/30 05:47:54;;;;;;;90.18;54.15;;;;;;;14.04;61.92;99387.47;4975954;28;20026;-92
2024/03/30 05:50:23;;;;;;;27.73;10.93;;;;;;;14.31;61.00;99403.88;4976346;28;20023;-94
2024/03/30 05:52:49;;;;;;;20.27;7.22;;;;;;;14.42;60.75;99382.06;4961416;28;20026;-91
2024/03/30 05:55:14;;;;;;;22.10;6.68;;;;;;;14.55;60.58;99397.59;4942444;28;20085;-92
2024/03/30 05:57:40;;;;;;;20.02;6.13;;;;;;;14.70;60.32;99410.94;4944181;28;20029;-93
2024/03/30 06:00:10;;;;;;;19.70;7.15;;;;;;;14.65;60.56;99392.06;4945160;28;20053;-93
2024/03/30 06:02:37;;;;;;;25.92;7.60;;;;;;;14.70;60.13;99391.16;4959580;28;20141;-92
2024/03/30 06:05:03;;;;;;;45.25;10.15;;;;;;;14.85;59.80;99398.25;4943512;28;20400;-92
2024/03/30 06:07:29;;;;;;;21.65;7.78;;;;;;;15.05;59.11;99395.19;4943946;28;20090;-92
2024/03/30 06:09:55;;;;;;;19.42;7.40;;;;;;;15.18;58.54;99398.25;4961047;28;20408;-92
2024/03/30 06:12:20;;;;;;;27.65;8.25;;;;;;;15.36;58.08;99391.94;4960654;28;20027;-92
2024/03/30 06:14:46;;;;;;;21.30;9.05;;;;;;;15.56;57.74;99401.59;4975636;28;20405;-94
2024/03/30 06:17:12;;;;;;;23.75;11.85;;;;;;;15.53;57.68;99377.78;4944151;28;20493;-92
2024/03/30 06:19:38;;;;;;;23.08;11.60;;;;;;;15.68;57.29;99376.66;4943966;28;20042;-92
2024/03/30 06:22:03;;;;;;;30.67;12.75;;;;;;;15.89;56.69;99379.81;4948337;28;20050;-92
2024/03/30 06:24:29;;;;;;;23.52;9.15;;;;;;;16.13;56.42;99372.22;4964954;28;20073;-95
2024/03/30 06:26:57;;;;;;;20.77;10.45;;;;;;;16.35;55.80;99370.66;4949845;28;20030;-95
2024/03/30 06:29:23;;;;;;;33.20;12.75;;;;;;;16.60;55.51;99380.16;4970591;28;20138;-93
2024/03/30 06:31:48;;;;;;;35.28;14.30;;;;;;;16.74;55.04;99375.41;4969344;28;20061;-93
2024/03/30 06:34:14;;;;;;;34.88;14.77;;;;;;;16.90;54.70;99375.09;4968000;28;20064;-95
2024/03/30 06:36:40;;;;;;;38.20;15.48;;;;;;;17.11;54.36;99372.66;4984121;28;20046;-95
2024/03/30 06:39:05;;;;;;;38.90;15.95;;;;;;;17.25;53.87;99373.38;4983588;28;20034;-94
2024/03/30 06:44:17;;;;;;;42.55;18.20;;;;;;;17.84;52.42;99399.56;4988742;28;20185;-93
2024/03/30 06:46:43;;;;;;;56.88;21.13;;;;;;;18.01;52.89;99396.88;4967350;28;20032;-94
2024/03/30 06:49:09;;;;;;;45.22;22.00;;;;;;;18.15;52.18;99391.31;4983757;28;20031;-94
2024/03/30 06:51:34;;;;;;;41.47;17.52;;;;;;;18.20;50.96;99372.09;4968167;28;20416;-96
2024/03/30 06:54:00;;;;;;;19.40;7.32;;;;;;;18.51;44.15;99377.38;4968253;28;20058;-95
2024/03/30 06:56:26;;;;;;;12.90;3.60;;;;;;;18.71;40.73;99362.28;4950807;28;20030;-93
2024/03/30 06:58:52;;;;;;;11.30;3.45;;;;;;;18.89;39.58;99356.84;4967973;28;20089;-93
2024/03/30 07:01:17;;;;;;;18.60;4.07;;;;;;;19.20;39.27;99356.59;4951641;28;20018;-95
2024/03/30 07:03:43;;;;;;;26.92;7.05;;;;;;;19.42;40.24;99371.91;4951945;28;20030;-93
2024/03/30 07:06:10;;;;;;;21.42;9.20;;;;;;;19.56;42.97;99360.78;4950925;28;20040;-93
2024/03/30 07:08:36;;;;;;;22.52;9.00;;;;;;;19.82;42.09;99389.91;4952865;28;20061;-93
2024/03/30 07:11:02;;;;;;;18.98;5.47;;;;;;;19.96;39.82;99383.09;4952446;28;20052;-94
2024/03/30 07:13:30;;;;;;;19.02;4.90;;;;;;;20.15;36.83;99385.38;4951959;28;20030;-93
2024/03/30 07:15:56;;;;;;;13.13;4.22;;;;;;;20.25;35.54;99370.50;4951578;28;20031;-93
2024/03/30 07:18:23;;;;;;;11.65;3.35;;;;;;;20.45;35.19;99384.53;4951403;28;20026;-94
2024/03/30 07:20:49;;;;;;;16.85;3.28;;;;;;;20.52;34.57;99362.91;4951316;28;20052;-94
2024/03/30 07:23:14;;;;;;;14.73;4.47;;;;;;;20.79;33.75;99378.78;4950834;28;20093;-94
2024/03/30 07:25:40;;;;;;;11.60;3.45;;;;;;;20.92;33.35;99374.16;4950382;28;20124;-95
2024/03/30 07:28:11;;;;;;;9.98;3.25;;;;;;;21.05;33.21;99369.50;4951982;28;20031;-95
2024/03/30 07:30:38;;;;;;;9.60;3.28;;;;;;;21.18;33.84;99367.59;4968825;28;20053;-94
2024/03/30 07:33:05;;;;;;;16.33;4.28;;;;;;;21.42;33.79;99391.50;4950462;28;20034;-95
2024/03/30 07:35:42;;;;;;;12.00;4.18;;;;;;;21.52;32.93;99366.41;5292635;23;20059;-96
2024/03/30 07:38:08;;;;;;;14.68;3.75;;;;;;;21.74;32.70;99381.59;4992909;23;20055;-94
2024/03/30 07:40:35;;;;;;;19.48;4.95;;;;;;;21.92;32.55;99379.41;4928111;29;20514;-94
2024/03/30 07:43:05;;;;;;;;;;;;;;;22.12;32.29;99383.16;4964120;28;20042;-92
2024/03/30 07:45:33;;;;;;;8.77;3.28;;;;;;;22.06;32.56;99361.78;4945665;29;19915;-94
2024/03/30 07:47:59;;;;;;;15.60;3.30;;;;;;;22.32;32.28;99375.94;4945329;29;20030;-94
2024/03/30 07:50:25;;;;;;;7.38;2.72;;;;;;;22.45;31.42;99373.16;4930040;29;20035;-96
2024/03/30 07:52:52;;;;;;;8.45;2.33;;;;;;;22.68;30.54;99374.22;4946488;29;20506;-94
2024/03/30 07:55:17;;;;;;;7.43;1.70;;;;;;;22.82;30.47;99368.31;4930750;29;20035;-94
2024/03/30 07:57:43;;;;;;;11.23;2.88;;;;;;;22.88;30.06;99353.19;4944578;29;20485;-94
2024/03/30 08:00:11;;;;;;;21.08;4.63;;;;;;;22.97;30.49;99355.75;4945565;29;20049;-95
2024/03/30 08:02:36;;;;;;;8.95;2.35;;;;;;;23.24;30.87;99367.09;4947486;29;20034;-94
2024/03/30 08:05:04;;;;;;;19.27;2.90;;;;;;;23.36;30.31;99367.00;4934531;29;20394;-95
2024/03/30 08:07:30;;;;;;;23.48;4.63;;;;;;;23.38;29.58;99362.75;4948255;29;20098;-95
2024/03/30 08:09:56;;;;;;;14.02;2.13;;;;;;;23.42;29.60;99354.59;4933867;29;20475;-95
2024/03/30 08:12:22;;;;;;;24.05;3.55;;;;;;;23.58;29.51;99362.84;4930615;29;20062;-94
2024/03/30 08:14:50;;;;;;;14.18;2.97;;;;;;;23.71;29.30;99367.06;4946628;29;20031;-95
2024/03/30 08:17:18;;;;;;;29.00;2.78;;;;;;;23.79;29.35;99363.34;4900345;29;20039;-95
2024/03/30 08:19:46;;;;;;;12.57;2.55;;;;;;;23.92;28.51;99372.28;4961348;29;20027;-96
2024/03/30 08:22:12;;;;;;;19.75;2.90;;;;;;;23.98;29.02;99361.81;4948371;29;20027;-96
2024/03/30 08:24:39;;;;;;;15.77;2.60;;;;;;;24.04;28.14;99363.13;4947784;29;20042;-93
2024/03/30 08:27:04;;;;;;;13.75;2.65;;;;;;;24.11;27.50;99359.72;4945019;29;20039;-94
2024/03/30 08:29:32;;;;;;;10.85;2.65;;;;;;;24.13;27.61;99349.97;4934559;29;20027;-96
2024/03/30 08:31:58;;;;;;;14.85;2.38;;;;;;;24.30;27.89;99372.72;4932823;29;20121;-93
2024/03/30 08:34:27;;;;;;;9.55;1.73;;;;;;;24.23;27.70;99347.81;4929654;29;20179;-96
2024/03/30 08:37:09;;;;;;;8.65;1.67;;;;;;;24.26;28.09;99347.06;4995989;23;20066;-96
2024/03/30 08:39:58;;;;;;;13.27;1.90;;;;;;;24.46;27.79;99358.91;5041681;23;20034;-96
2024/03/30 08:43:19;;;;;;;6.80;1.67;;;;;;;24.60;27.15;99360.00;4955602;29;20040;-96
2024/03/30 08:45:44;;;;;;;14.63;2.30;;;;;;;24.60;26.89;99340.72;4927460;29;20123;-96
2024/03/30 08:48:13;;;;;;;12.38;2.30;;;;;;;24.60;27.07;99342.69;4913138;29;20131;-96
2024/03/30 08:50:39;;;;;;;9.75;1.90;;;;;;;24.70;27.21;99347.63;4898128;29;20031;-96
2024/03/30 08:53:10;;;;;;;19.75;2.42;;;;;;;24.80;27.35;99340.72;4898679;29;20126;-94
2024/03/30 08:55:36;;;;;;;19.73;2.63;;;;;;;24.88;27.49;99347.16;4895924;29;20068;-96
2024/03/30 08:58:03;;;;;;;15.15;1.70;;;;;;;24.98;26.36;99341.81;4912013;29;20135;-96
2024/03/30 09:00:29;;;;;;;7.70;1.75;;;;;;;25.05;26.73;99343.13;4912422;29;20035;-94
2024/03/30 09:02:55;;;;;;;11.93;2.30;;;;;;;25.09;25.95;99349.50;4910936;29;20086;-95
2024/03/30 09:05:26;;;;;;;11.73;1.92;;;;;;;25.11;26.63;99342.47;4895890;29;20043;-96
2024/03/30 09:07:53;;;;;;;21.42;2.33;;;;;;;25.12;25.95;99340.50;4900247;29;20047;-96
2024/03/30 09:10:20;;;;;;;15.25;2.50;;;;;;;25.14;25.34;99333.44;4909385;29;20129;-96
2024/03/30 09:12:46;;;;;;;11.15;1.95;;;;;;;25.20;25.23;99339.47;4917690;28;20039;-94
2024/03/30 09:15:13;;;;;;;8.68;2.00;;;;;;;25.27;25.91;99325.03;4947834;28;20541;-94
2024/03/30 09:23:56;;;;;;;7.80;1.92;;;;;;;25.32;25.09;99321.97;4987075;28;20058;-96
2024/03/30 09:26:50;;;;;;;9.15;2.95;;;;;;;25.37;25.56;99319.69;4955995;28;20051;-96
2024/03/30 09:29:27;;;;;;;10.40;2.10;;;;;;;25.43;25.15;99314.66;4923554;29;20042;-96
2024/03/30 09:31:53;;;;;;;8.27;1.95;;;;;;;25.44;24.73;99312.69;4900673;29;20146;-96
2024/03/30 09:34:19;;;;;;;13.85;2.47;;;;;;;25.55;24.49;99324.69;4917268;29;20047;-96
2024/03/30 09:37:17;;;;;;;9.00;2.10;;;;;;;25.51;24.68;99299.81;4914892;29;20026;-96
2024/03/30 09:39:54;;;;;;;4.07;1.58;;;;;;;25.34;23.68;99303.13;4914625;29;20032;-96
2024/03/30 09:45:26;;;;;;;13.48;6.40;;;;;;;25.60;23.77;99303.09;4912553;29;20487;-95
2024/03/30 09:47:52;;;;;;;9.70;1.70;;;;;;;25.70;22.95;99318.22;4874462;29;20016;-96
2024/03/30 09:50:19;;;;;;;8.75;1.50;;;;;;;25.68;24.03;99311.50;4894380;29;20660;-96
2024/03/30 09:52:44;;;;;;;16.98;2.45;;;;;;;25.59;23.91;99282.22;4878727;29;20167;-93
2024/03/30 09:55:16;;;;;;;12.75;2.13;;;;;;;25.82;23.72;99311.69;4891134;29;20041;-96
2024/03/30 09:57:42;;;;;;;18.52;2.00;;;;;;;25.87;23.90;99307.81;4891520;29;20102;-96
2024/03/30 10:00:11;;;;;;;6.20;2.00;;;;;;;25.88;24.10;99296.41;4881236;29;20020;-93
2024/03/30 10:02:36;;;;;;;11.10;2.90;;;;;;;25.95;23.84;99296.53;4909523;29;20054;-93
2024/03/30 10:05:03;;;;;;;12.77;2.63;;;;;;;25.94;23.94;99277.59;4892054;29;20043;-95
2024/03/30 10:07:33;;;;;;;9.20;1.60;;;;;;;25.90;23.73;99272.03;4908856;29;20087;-96
2024/03/30 10:10:05;;;;;;;7.20;1.80;;;;;;;25.99;23.29;99285.56;4906139;28;20042;-93
2024/03/30 10:13:03;;;;;;;9.40;2.20;;;;;;;26.08;22.95;99288.00;4950188;28;20412;-95
2024/03/30 10:15:41;;;;;;;7.93;1.95;;;;;;;25.94;23.05;99269.31;4951195;28;20035;-94
2024/03/30 10:18:07;;;;;;;12.00;1.90;;;;;;;26.01;23.28;99264.69;4933356;28;20026;-94
2024/03/30 10:20:32;;;;;;;22.10;3.58;;;;;;;26.03;23.62;99267.06;4949100;28;20512;-95
2024/03/30 10:22:58;;;;;;;3.55;1.30;;;;;;;26.02;23.75;99259.94;4933074;28;20023;-95
2024/03/30 10:25:25;;;;;;;5.35;1.75;;;;;;;26.10;22.67;99271.88;4936044;28;20029;-92
2024/03/30 10:27:53;;;;;;;11.93;1.65;;;;;;;26.02;22.80;99257.19;4967695;28;20034;-93
2024/03/30 10:30:23;;;;;;;9.80;1.75;;;;;;;25.98;22.74;99245.31;4933702;28;20102;-94
2024/03/30 10:32:48;;;;;;;13.27;1.90;;;;;;;26.06;23.09;99252.50;4967695;28;20022;-94
2024/03/30 10:35:52;;;;;;;8.25;2.30;;;;;;;26.21;23.19;99256.25;4952170;28;20482;-95
2024/03/30 10:38:11;;;;;;;7.90;2.88;;;;;;;26.23;23.64;99231.03;4958656;28;20050;-93
2024/03/30 10:40:38;;;;;;;10.82;1.58;;;;;;;26.34;23.48;99246.53;4950613;28;20022;-95
2024/03/30 10:43:08;;;;;;;5.45;1.10;;;;;;;26.25;22.81;99237.78;4939065;28;20051;-94
2024/03/30 10:45:34;;;;;;;10.57;1.77;;;;;;;26.30;22.55;99217.31;4970401;28;20503;-94
2024/03/30 10:48:03;;;;;;;9.00;1.55;;;;;;;26.46;22.73;99225.34;4937550;28;20031;-94
2024/03/30 10:50:30;;;;;;;9.40;2.38;;;;;;;26.48;22.44;99223.81;4937730;28;20389;-94
2024/03/30 10:52:56;;;;;;;7.90;1.73;;;;;;;26.45;21.71;99212.72;4951406;28;20027;-95
2024/03/30 10:55:27;;;;;;;6.10;1.55;;;;;;;26.44;21.26;99203.66;4950361;28;20415;-95
2024/03/30 10:57:58;;;;;;;5.63;1.50;;;;;;;26.49;21.73;99203.28;4935086;28;20177;-93
2024/03/30 11:00:25;;;;;;;4.68;1.25;;;;;;;26.45;20.90;99191.44;4933530;28;20043;-94
2024/03/30 11:02:50;;;;;;;5.45;1.30;;;;;;;26.56;21.01;99199.81;4931713;28;20054;-92
2024/03/30 11:05:16;;;;;;;13.65;1.80;;;;;;;26.56;21.83;99194.28;4966092;28;20086;-94
2024/03/30 11:07:42;;;;;;;9.65;1.45;;;;;;;26.62;21.85;99173.44;4950454;28;20058;-95
2024/03/30 11:10:07;;;;;;;6.28;1.52;;;;;;;26.71;21.36;99193.28;4951492;28;20031;-95
2024/03/30 11:12:33;;;;;;;5.47;1.73;;;;;;;26.60;21.48;99175.81;4966119;28;20055;-95
2024/03/30 11:14:59;;;;;;;6.75;1.55;;;;;;;26.68;22.13;99169.16;5023338;23;20054;-96
2024/03/30 11:17:31;;;;;;;5.22;1.50;;;;;;;26.81;21.68;99180.72;4949775;28;20042;-96
2024/03/30 11:20:15;;;;;;;9.77;1.45;;;;;;;26.82;22.35;99182.31;4954033;28;20370;-94
2024/03/30 11:22:55;;;;;;;6.22;1.45;;;;;;;26.81;21.22;99175.19;4952914;28;20051;-94
2024/03/30 11:25:27;;;;;;;9.23;1.90;;;;;;;26.79;22.43;99178.34;4950582;28;20477;-94
2024/03/30 11:28:06;;;;;;;16.33;2.03;;;;;;;26.68;22.09;99171.13;4950859;28;20058;-95
2024/03/30 11:30:46;;;;;;;5.93;1.35;;;;;;;26.69;21.96;99158.94;4950609;28;20170;-96
2024/03/30 11:33:17;;;;;;;9.18;1.60;;;;;;;26.74;22.42;99153.03;4949512;28;20027;-95
2024/03/30 11:36:09;;;;;;;13.68;2.22;;;;;;;26.77;22.59;99141.22;4951805;28;20015;-93
2024/03/30 11:38:40;;;;;;;11.35;3.00;;;;;;;26.83;21.54;99136.13;4961468;28;20050;-93
2024/03/30 11:41:06;;;;;;;13.05;5.57;;;;;;;26.92;22.33;99131.06;4949114;28;20031;-94
2024/03/30 11:43:56;;;;;;;8.93;1.95;;;;;;;27.08;22.02;99142.63;4932946;28;20031;-93